sensor_id;sensor_type;location;lat;lon;timestamp;pressure;altitude;pressure_sealevel;temperature;humidity
11327;BME280;5718;42.138;24.762;2023-09-12T00:00:23;99748.34;;;17.63;66.59
11327;BME280;5718;42.138;24.762;2023-09-12T00:02:49;99748.97;;;17.74;67.34
11327;BME280;5718;42.138;24.762;2023-09-12T00:05:16;99745.91;;;17.54;67.67
11327;BME280;5718;42.138;24.762;2023-09-12T00:07:43;99741.19;;;17.68;67.37
11327;BME280;5718;42.138;24.762;2023-09-12T00:10:09;99750.44;;;17.84;65.86
11327;BME280;5718;42.138;24.762;2023-09-12T00:12:38;99747.31;;;17.68;67.20
11327;BME280;5718;42.138;24.762;2023-09-12T00:15:05;99747.66;;;17.90;67.46
11327;BME280;5718;42.138;24.762;2023-09-12T00:17:32;99760.28;;;17.76;68.84
11327;BME280;5718;42.138;24.762;2023-09-12T00:19:59;99747.44;;;17.64;69.96
11327;BME280;5718;42.138;24.762;2023-09-12T00:22:26;99755.19;;;17.68;70.36
11327;BME280;5718;42.138;24.762;2023-09-12T00:24:53;99752.78;;;17.59;70.65
11327;BME280;5718;42.138;24.762;2023-09-12T00:27:19;99753.66;;;17.60;71.46
11327;BME280;5718;42.138;24.762;2023-09-12T00:29:47;99753.00;;;17.50;70.46
11327;BME280;5718;42.138;24.762;2023-09-12T00:32:14;99760.78;;;17.55;71.81
11327;BME280;5718;42.138;24.762;2023-09-12T00:34:41;99752.88;;;17.56;72.56
11327;BME280;5718;42.138;24.762;2023-09-12T00:37:08;99762.91;;;17.39;73.84
11327;BME280;5718;42.138;24.762;2023-09-12T00:39:35;99765.69;;;17.70;73.41
11327;BME280;5718;42.138;24.762;2023-09-12T00:42:02;99763.19;;;17.64;73.89
11327;BME280;5718;42.138;24.762;2023-09-12T00:44:29;99759.94;;;17.54;75.87
11327;BME280;5718;42.138;24.762;2023-09-12T00:46:57;99760.03;;;17.50;78.01
11327;BME280;5718;42.138;24.762;2023-09-12T00:49:25;99759.03;;;17.55;80.47
11327;BME280;5718;42.138;24.762;2023-09-12T00:51:53;99755.59;;;17.52;82.14
11327;BME280;5718;42.138;24.762;2023-09-12T00:54:21;99759.66;;;17.28;86.95
11327;BME280;5718;42.138;24.762;2023-09-12T00:56:48;99758.19;;;17.16;89.69
11327;BME280;5718;42.138;24.762;2023-09-12T00:59:16;99758.53;;;17.01;94.95
11327;BME280;5718;42.138;24.762;2023-09-12T01:01:44;99751.63;;;16.97;95.08
11327;BME280;5718;42.138;24.762;2023-09-12T01:04:13;99761.19;;;16.99;97.57
11327;BME280;5718;42.138;24.762;2023-09-12T01:06:40;99769.22;;;16.92;99.29
11327;BME280;5718;42.138;24.762;2023-09-12T01:09:06;99758.81;;;16.89;100.00
11327;BME280;5718;42.138;24.762;2023-09-12T01:11:34;99760.72;;;16.80;100.00
11327;BME280;5718;42.138;24.762;2023-09-12T01:14:01;99760.78;;;16.77;100.00
11327;BME280;5718;42.138;24.762;2023-09-12T01:16:28;99756.88;;;16.97;100.00
11327;BME280;5718;42.138;24.762;2023-09-12T01:18:54;99764.72;;;16.98;100.00
11327;BME280;5718;42.138;24.762;2023-09-12T01:21:52;99771.22;;;16.80;100.00
11327;BME280;5718;42.138;24.762;2023-09-12T01:24:54;99775.69;;;16.75;100.00
11327;BME280;5718;42.138;24.762;2023-09-12T01:27:33;99773.78;;;16.83;100.00
11327;BME280;5718;42.138;24.762;2023-09-12T01:30:04;99774.34;;;16.98;100.00
11327;BME280;5718;42.138;24.762;2023-09-12T01:32:31;99768.03;;;17.06;100.00
11327;BME280;5718;42.138;24.762;2023-09-12T04:36:41;99822.13;;;15.05;100.00
11327;BME280;5718;42.138;24.762;2023-09-12T04:39:07;99811.59;;;15.11;100.00
11327;BME280;5718;42.138;24.762;2023-09-12T04:41:34;99812.41;;;15.16;100.00
11327;BME280;5718;42.138;24.762;2023-09-12T04:44:01;99822.94;;;15.10;100.00
11327;BME280;5718;42.138;24.762;2023-09-12T04:46:27;99816.56;;;15.31;100.00
11327;BME280;5718;42.138;24.762;2023-09-12T04:48:54;99823.19;;;15.54;100.00
11327;BME280;5718;42.138;24.762;2023-09-12T04:51:21;99828.69;;;15.37;100.00
11327;BME280;5718;42.138;24.762;2023-09-12T04:53:49;99826.75;;;15.50;100.00
11327;BME280;5718;42.138;24.762;2023-09-12T04:56:17;99822.22;;;15.62;100.00
11327;BME280;5718;42.138;24.762;2023-09-12T04:58:43;99822.91;;;15.75;100.00
11327;BME280;5718;42.138;24.762;2023-09-12T05:01:10;99820.47;;;15.64;100.00
11327;BME280;5718;42.138;24.762;2023-09-12T05:03:37;99822.09;;;15.70;100.00
11327;BME280;5718;42.138;24.762;2023-09-12T05:06:04;99825.28;;;15.90;100.00
11327;BME280;5718;42.138;24.762;2023-09-12T05:08:30;99822.88;;;15.77;100.00
11327;BME280;5718;42.138;24.762;2023-09-12T05:10:58;99822.63;;;15.93;100.00
11327;BME280;5718;42.138;24.762;2023-09-12T05:13:25;99820.16;;;15.84;100.00
11327;BME280;5718;42.138;24.762;2023-09-12T05:15:52;99834.03;;;15.88;100.00
11327;BME280;5718;42.138;24.762;2023-09-12T05:18:18;99828.81;;;15.88;100.00
11327;BME280;5718;42.138;24.762;2023-09-12T05:20:45;99832.00;;;16.07;100.00
11327;BME280;5718;42.138;24.762;2023-09-12T05:23:12;99834.00;;;16.42;100.00
11327;BME280;5718;42.138;24.762;2023-09-12T05:25:38;99832.31;;;16.38;100.00
11327;BME280;5718;42.138;24.762;2023-09-12T05:28:07;99835.94;;;16.80;100.00
11327;BME280;5718;42.138;24.762;2023-09-12T05:30:33;99832.72;;;16.63;100.00
11327;BME280;5718;42.138;24.762;2023-09-12T05:33:01;99828.06;;;16.78;100.00
11327;BME280;5718;42.138;24.762;2023-09-12T05:35:28;99834.22;;;16.77;100.00
11327;BME280;5718;42.138;24.762;2023-09-12T05:37:54;99824.44;;;16.85;100.00
11327;BME280;5718;42.138;24.762;2023-09-12T05:40:21;99822.63;;;16.89;100.00
11327;BME280;5718;42.138;24.762;2023-09-12T05:42:48;99830.63;;;17.25;100.00
11327;BME280;5718;42.138;24.762;2023-09-12T05:45:16;99823.88;;;17.52;100.00
11327;BME280;5718;42.138;24.762;2023-09-12T05:47:43;99824.69;;;17.92;100.00
11327;BME280;5718;42.138;24.762;2023-09-12T05:50:09;99824.25;;;17.75;100.00
11327;BME280;5718;42.138;24.762;2023-09-12T05:52:37;99814.09;;;17.95;100.00
11327;BME280;5718;42.138;24.762;2023-09-12T05:55:04;99810.59;;;18.31;100.00
11327;BME280;5718;42.138;24.762;2023-09-12T05:57:31;99815.84;;;17.96;100.00
11327;BME280;5718;42.138;24.762;2023-09-12T05:59:59;99813.66;;;17.78;100.00
11327;BME280;5718;42.138;24.762;2023-09-12T06:02:28;99812.88;;;17.75;100.00
11327;BME280;5718;42.138;24.762;2023-09-12T06:04:55;99814.19;;;17.92;100.00
11327;BME280;5718;42.138;24.762;2023-09-12T06:07:22;99817.66;;;18.27;100.00
11327;BME280;5718;42.138;24.762;2023-09-12T06:09:50;99828.19;;;18.27;100.00
11327;BME280;5718;42.138;24.762;2023-09-12T06:12:16;99825.81;;;18.18;100.00
11327;BME280;5718;42.138;24.762;2023-09-12T06:14:43;99827.00;;;18.73;100.00
11327;BME280;5718;42.138;24.762;2023-09-12T06:17:10;99826.69;;;18.84;96.86
11327;BME280;5718;42.138;24.762;2023-09-12T06:19:38;99828.25;;;18.58;99.92
11327;BME280;5718;42.138;24.762;2023-09-12T06:22:05;99835.75;;;19.04;97.12
11327;BME280;5718;42.138;24.762;2023-09-12T06:24:32;99837.44;;;19.36;95.77
11327;BME280;5718;42.138;24.762;2023-09-12T06:26:58;99842.09;;;18.97;98.06
11327;BME280;5718;42.138;24.762;2023-09-12T06:29:25;99838.19;;;19.40;96.93
11327;BME280;5718;42.138;24.762;2023-09-12T06:31:52;99837.06;;;19.77;93.32
11327;BME280;5718;42.138;24.762;2023-09-12T06:34:20;99846.81;;;20.01;91.93
11327;BME280;5718;42.138;24.762;2023-09-12T06:36:48;99836.13;;;19.79;91.06
11327;BME280;5718;42.138;24.762;2023-09-12T06:39:14;99838.03;;;19.74;92.18
11327;BME280;5718;42.138;24.762;2023-09-12T06:41:41;99845.69;;;19.52;94.97
11327;BME280;5718;42.138;24.762;2023-09-12T06:44:08;99838.69;;;19.81;94.52
11327;BME280;5718;42.138;24.762;2023-09-12T06:46:35;99840.63;;;19.76;94.24
11327;BME280;5718;42.138;24.762;2023-09-12T06:49:03;99840.84;;;19.96;94.38
11327;BME280;5718;42.138;24.762;2023-09-12T06:51:29;99842.97;;;20.11;94.39
11327;BME280;5718;42.138;24.762;2023-09-12T06:53:57;99845.47;;;20.41;91.94
11327;BME280;5718;42.138;24.762;2023-09-12T06:56:24;99855.19;;;20.90;88.50
11327;BME280;5718;42.138;24.762;2023-09-12T06:58:52;99840.16;;;20.92;85.77
11327;BME280;5718;42.138;24.762;2023-09-12T07:01:20;99844.47;;;20.95;85.28
11327;BME280;5718;42.138;24.762;2023-09-12T07:03:48;99846.78;;;21.04;84.74
11327;BME280;5718;42.138;24.762;2023-09-12T07:06:19;99840.88;;;21.44;77.60
11327;BME280;5718;42.138;24.762;2023-09-12T07:08:45;99849.09;;;21.58;74.94
11327;BME280;5718;42.138;24.762;2023-09-12T07:11:13;99846.91;;;21.70;74.00
11327;BME280;5718;42.138;24.762;2023-09-12T07:13:40;99845.25;;;22.11;71.47
11327;BME280;5718;42.138;24.762;2023-09-12T07:16:07;99847.72;;;22.56;66.80
11327;BME280;5718;42.138;24.762;2023-09-12T07:18:34;99850.50;;;22.53;66.11
11327;BME280;5718;42.138;24.762;2023-09-12T07:21:03;99852.81;;;22.40;67.20
11327;BME280;5718;42.138;24.762;2023-09-12T07:23:30;99851.59;;;21.85;70.04
11327;BME280;5718;42.138;24.762;2023-09-12T07:25:58;99843.94;;;22.21;68.48
11327;BME280;5718;42.138;24.762;2023-09-12T07:28:26;99839.31;;;22.87;67.06
11327;BME280;5718;42.138;24.762;2023-09-12T07:30:54;99844.59;;;22.67;64.94
11327;BME280;5718;42.138;24.762;2023-09-12T07:33:21;99846.06;;;22.54;69.21
11327;BME280;5718;42.138;24.762;2023-09-12T07:35:48;99839.72;;;23.36;66.32
11327;BME280;5718;42.138;24.762;2023-09-12T07:38:15;99844.00;;;23.58;64.92
11327;BME280;5718;42.138;24.762;2023-09-12T07:40:41;99838.41;;;22.27;75.10
11327;BME280;5718;42.138;24.762;2023-09-12T07:43:08;99838.13;;;22.54;76.41
11327;BME280;5718;42.138;24.762;2023-09-12T07:45:37;99839.78;;;23.53;69.34
11327;BME280;5718;42.138;24.762;2023-09-12T07:48:06;99831.44;;;23.80;68.20
11327;BME280;5718;42.138;24.762;2023-09-12T07:50:33;99838.97;;;24.43;64.81
11327;BME280;5718;42.138;24.762;2023-09-12T07:53:00;99834.72;;;24.56;63.17
11327;BME280;5718;42.138;24.762;2023-09-12T07:55:27;99835.91;;;24.50;63.69
11327;BME280;5718;42.138;24.762;2023-09-12T07:57:56;99835.50;;;24.58;60.50
11327;BME280;5718;42.138;24.762;2023-09-12T08:00:24;99836.25;;;24.77;61.62
11327;BME280;5718;42.138;24.762;2023-09-12T08:02:52;99827.56;;;24.91;60.53
11327;BME280;5718;42.138;24.762;2023-09-12T08:05:18;99824.44;;;23.79;65.04
11327;BME280;5718;42.138;24.762;2023-09-12T08:07:45;99831.19;;;24.55;63.37
11327;BME280;5718;42.138;24.762;2023-09-12T08:10:12;99826.25;;;24.65;61.33
11327;BME280;5718;42.138;24.762;2023-09-12T08:12:39;99813.19;;;24.78;58.39
11327;BME280;5718;42.138;24.762;2023-09-12T08:15:08;99830.44;;;25.04;56.33
11327;BME280;5718;42.138;24.762;2023-09-12T08:17:34;99829.00;;;25.30;55.37
11327;BME280;5718;42.138;24.762;2023-09-12T08:20:03;99824.19;;;25.20;54.95
11327;BME280;5718;42.138;24.762;2023-09-12T08:22:30;99822.59;;;25.34;55.51
11327;BME280;5718;42.138;24.762;2023-09-12T08:24:57;99818.13;;;25.01;57.75
11327;BME280;5718;42.138;24.762;2023-09-12T08:27:24;99817.25;;;25.18;56.23
11327;BME280;5718;42.138;24.762;2023-09-12T08:29:50;99825.88;;;24.55;58.49
11327;BME280;5718;42.138;24.762;2023-09-12T08:32:17;99817.69;;;25.42;55.39
11327;BME280;5718;42.138;24.762;2023-09-12T08:34:44;99823.25;;;25.53;53.49
11327;BME280;5718;42.138;24.762;2023-09-12T08:37:12;99816.75;;;25.27;55.24
11327;BME280;5718;42.138;24.762;2023-09-12T08:39:42;99809.94;;;25.69;53.87
11327;BME280;5718;42.138;24.762;2023-09-12T08:42:12;99804.50;;;25.40;54.50
11327;BME280;5718;42.138;24.762;2023-09-12T08:44:40;99807.41;;;25.52;55.06
11327;BME280;5718;42.138;24.762;2023-09-12T08:47:08;99807.44;;;25.03;56.02
11327;BME280;5718;42.138;24.762;2023-09-12T08:49:35;99800.34;;;25.82;53.86
11327;BME280;5718;42.138;24.762;2023-09-12T08:52:03;99802.22;;;25.64;53.26
11327;BME280;5718;42.138;24.762;2023-09-12T08:54:32;99799.16;;;25.25;54.97
11327;BME280;5718;42.138;24.762;2023-09-12T08:57:00;99795.03;;;25.35;53.73
11327;BME280;5718;42.138;24.762;2023-09-12T08:59:28;99808.31;;;24.53;57.09
11327;BME280;5718;42.138;24.762;2023-09-12T09:01:55;99805.19;;;24.95;55.49
11327;BME280;5718;42.138;24.762;2023-09-12T09:04:24;99802.69;;;26.02;52.93
11327;BME280;5718;42.138;24.762;2023-09-12T09:06:52;99804.28;;;26.51;50.20
11327;BME280;5718;42.138;24.762;2023-09-12T09:09:21;99801.75;;;25.42;52.77
11327;BME280;5718;42.138;24.762;2023-09-12T09:11:50;99795.94;;;25.81;52.68
11327;BME280;5718;42.138;24.762;2023-09-12T09:14:17;99806.69;;;26.84;46.27
11327;BME280;5718;42.138;24.762;2023-09-12T09:16:44;99802.97;;;26.86;46.14
11327;BME280;5718;42.138;24.762;2023-09-12T09:19:10;99796.09;;;26.54;46.00
11327;BME280;5718;42.138;24.762;2023-09-12T09:21:38;99796.13;;;27.11;44.58
11327;BME280;5718;42.138;24.762;2023-09-12T09:24:07;99798.66;;;27.27;44.58
11327;BME280;5718;42.138;24.762;2023-09-12T09:26:44;99793.84;;;27.05;43.21
11327;BME280;5718;42.138;24.762;2023-09-12T09:29:15;99786.28;;;26.97;43.93
11327;BME280;5718;42.138;24.762;2023-09-12T09:31:43;99785.16;;;26.87;44.99
11327;BME280;5718;42.138;24.762;2023-09-12T09:34:14;99778.00;;;27.02;44.46
11327;BME280;5718;42.138;24.762;2023-09-12T09:36:41;99776.09;;;27.32;43.75
11327;BME280;5718;42.138;24.762;2023-09-12T09:39:09;99774.56;;;27.55;42.70
11327;BME280;5718;42.138;24.762;2023-09-12T09:41:37;99771.81;;;27.84;42.17
11327;BME280;5718;42.138;24.762;2023-09-12T09:44:05;99782.16;;;28.28;41.11
11327;BME280;5718;42.138;24.762;2023-09-12T09:46:33;99773.22;;;28.93;39.83
11327;BME280;5718;42.138;24.762;2023-09-12T09:49:01;99768.75;;;28.68;40.31
11327;BME280;5718;42.138;24.762;2023-09-12T09:51:29;99767.78;;;27.91;40.80
11327;BME280;5718;42.138;24.762;2023-09-12T09:53:57;99764.97;;;27.11;42.35
11327;BME280;5718;42.138;24.762;2023-09-12T09:56:26;99764.88;;;26.70;42.64
11327;BME280;5718;42.138;24.762;2023-09-12T09:58:54;99759.38;;;27.43;42.40
11327;BME280;5718;42.138;24.762;2023-09-12T10:01:22;99768.69;;;28.17;41.14
11327;BME280;5718;42.138;24.762;2023-09-12T10:03:51;99763.41;;;28.55;38.89
11327;BME280;5718;42.138;24.762;2023-09-12T10:06:19;99757.38;;;28.77;39.12
11327;BME280;5718;42.138;24.762;2023-09-12T10:08:52;99760.50;;;28.96;39.08
11327;BME280;5718;42.138;24.762;2023-09-12T10:11:22;99753.28;;;29.09;38.74
11327;BME280;5718;42.138;24.762;2023-09-12T10:13:52;99753.38;;;27.93;39.50
11327;BME280;5718;42.138;24.762;2023-09-12T10:16:20;99743.25;;;27.44;40.54
11327;BME280;5718;42.138;24.762;2023-09-12T10:18:58;99746.50;;;28.54;40.49
11327;BME280;5718;42.138;24.762;2023-09-12T10:21:29;99747.06;;;29.22;38.92
11327;BME280;5718;42.138;24.762;2023-09-12T10:23:58;99746.19;;;29.58;38.79
11327;BME280;5718;42.138;24.762;2023-09-12T10:26:26;99741.56;;;28.99;38.48
11327;BME280;5718;42.138;24.762;2023-09-12T10:28:54;99738.25;;;29.32;38.94
11327;BME280;5718;42.138;24.762;2023-09-12T10:31:22;99735.38;;;29.23;38.35
11327;BME280;5718;42.138;24.762;2023-09-12T10:33:52;99733.13;;;29.29;38.76
11327;BME280;5718;42.138;24.762;2023-09-12T10:36:20;99736.78;;;29.52;38.32
11327;BME280;5718;42.138;24.762;2023-09-12T10:38:48;99735.25;;;29.96;38.12
11327;BME280;5718;42.138;24.762;2023-09-12T10:41:15;99723.31;;;29.41;37.96
11327;BME280;5718;42.138;24.762;2023-09-12T10:43:42;99721.66;;;29.75;38.02
11327;BME280;5718;42.138;24.762;2023-09-12T10:46:12;99710.34;;;29.48;38.03
11327;BME280;5718;42.138;24.762;2023-09-12T10:48:39;99717.69;;;28.83;38.26
11327;BME280;5718;42.138;24.762;2023-09-12T10:51:08;99714.22;;;28.58;39.58
11327;BME280;5718;42.138;24.762;2023-09-12T10:53:37;99708.56;;;29.35;38.41
11327;BME280;5718;42.138;24.762;2023-09-12T10:56:15;99701.72;;;29.07;39.20
11327;BME280;5718;42.138;24.762;2023-09-12T10:59:12;99697.06;;;29.22;40.33
11327;BME280;5718;42.138;24.762;2023-09-12T11:01:40;99700.44;;;29.61;38.89
11327;BME280;5718;42.138;24.762;2023-09-12T11:04:30;99687.81;;;29.63;38.74
11327;BME280;5718;42.138;24.762;2023-09-12T11:07:00;99691.53;;;29.36;39.16
11327;BME280;5718;42.138;24.762;2023-09-12T11:09:27;99677.69;;;29.67;38.24
11327;BME280;5718;42.138;24.762;2023-09-12T11:11:58;99692.13;;;29.53;38.81
11327;BME280;5718;42.138;24.762;2023-09-12T11:14:25;99683.38;;;28.77;40.18
11327;BME280;5718;42.138;24.762;2023-09-12T11:17:20;99680.09;;;29.10;40.26
11327;BME280;5718;42.138;24.762;2023-09-12T11:19:48;99676.66;;;29.08;39.06
11327;BME280;5718;42.138;24.762;2023-09-12T11:22:26;99678.88;;;28.78;39.34
11327;BME280;5718;42.138;24.762;2023-09-12T11:24:54;99664.53;;;28.92;40.71
11327;BME280;5718;42.138;24.762;2023-09-12T11:27:22;99672.47;;;29.17;39.16
11327;BME280;5718;42.138;24.762;2023-09-12T11:29:49;99671.38;;;28.83;39.60
11327;BME280;5718;42.138;24.762;2023-09-12T11:32:27;99657.94;;;28.72;40.20
11327;BME280;5718;42.138;24.762;2023-09-12T11:34:54;99664.88;;;29.11;39.79
11327;BME280;5718;42.138;24.762;2023-09-12T11:37:26;99660.22;;;29.26;38.55
11327;BME280;5718;42.138;24.762;2023-09-12T11:39:55;99661.22;;;29.36;39.47
11327;BME280;5718;42.138;24.762;2023-09-12T11:42:23;99655.31;;;29.79;38.30
11327;BME280;5718;42.138;24.762;2023-09-12T11:44:51;99661.09;;;29.50;38.80
11327;BME280;5718;42.138;24.762;2023-09-12T11:47:18;99652.91;;;29.28;38.70
11327;BME280;5718;42.138;24.762;2023-09-12T11:49:45;99649.88;;;29.21;39.23
11327;BME280;5718;42.138;24.762;2023-09-12T11:52:13;99645.59;;;29.19;39.08
11327;BME280;5718;42.138;24.762;2023-09-12T11:54:43;99645.44;;;29.44;38.59
11327;BME280;5718;42.138;24.762;2023-09-12T11:57:12;99640.19;;;29.55;39.46
11327;BME280;5718;42.138;24.762;2023-09-12T11:59:41;99636.91;;;30.09;38.37
11327;BME280;5718;42.138;24.762;2023-09-12T12:02:09;99643.06;;;29.87;38.96
11327;BME280;5718;42.138;24.762;2023-09-12T12:04:37;99629.75;;;29.86;39.39
11327;BME280;5718;42.138;24.762;2023-09-12T12:07:04;99629.50;;;29.67;39.01
11327;BME280;5718;42.138;24.762;2023-09-12T12:09:32;99622.56;;;29.40;38.92
11327;BME280;5718;42.138;24.762;2023-09-12T12:12:09;99629.03;;;29.84;38.75
11327;BME280;5718;42.138;24.762;2023-09-12T12:14:36;99614.66;;;29.85;38.54
11327;BME280;5718;42.138;24.762;2023-09-12T12:17:07;99603.75;;;30.10;38.08
11327;BME280;5718;42.138;24.762;2023-09-12T12:19:35;99608.25;;;29.87;38.01
11327;BME280;5718;42.138;24.762;2023-09-12T12:22:02;99607.25;;;29.88;38.63
11327;BME280;5718;42.138;24.762;2023-09-12T12:24:36;99609.28;;;29.62;38.40
11327;BME280;5718;42.138;24.762;2023-09-12T12:27:05;99601.66;;;29.91;38.22
11327;BME280;5718;42.138;24.762;2023-09-12T12:29:33;99607.88;;;29.92;37.94
11327;BME280;5718;42.138;24.762;2023-09-12T12:32:00;99601.63;;;29.34;38.51
11327;BME280;5718;42.138;24.762;2023-09-12T12:34:27;99601.75;;;29.32;38.46
11327;BME280;5718;42.138;24.762;2023-09-12T12:36:54;99593.91;;;29.53;38.78
11327;BME280;5718;42.138;24.762;2023-09-12T12:39:21;99602.31;;;29.60;38.34
11327;BME280;5718;42.138;24.762;2023-09-12T12:41:48;99598.84;;;29.93;38.07
11327;BME280;5718;42.138;24.762;2023-09-12T12:44:16;99593.50;;;29.93;37.97
11327;BME280;5718;42.138;24.762;2023-09-12T12:46:49;99589.50;;;30.10;37.47
11327;BME280;5718;42.138;24.762;2023-09-12T12:49:17;99586.34;;;30.05;37.62
11327;BME280;5718;42.138;24.762;2023-09-12T12:51:45;99592.09;;;30.23;36.89
11327;BME280;5718;42.138;24.762;2023-09-12T12:54:12;99593.63;;;30.36;36.73
11327;BME280;5718;42.138;24.762;2023-09-12T12:56:39;99593.28;;;30.41;37.07
11327;BME280;5718;42.138;24.762;2023-09-12T12:59:07;99579.28;;;30.15;37.25
11327;BME280;5718;42.138;24.762;2023-09-12T13:01:37;99581.34;;;30.11;36.67
11327;BME280;5718;42.138;24.762;2023-09-12T13:04:05;99579.06;;;30.29;37.01
11327;BME280;5718;42.138;24.762;2023-09-12T13:06:32;99575.31;;;30.75;36.95
11327;BME280;5718;42.138;24.762;2023-09-12T13:09:01;99585.41;;;30.83;36.23
11327;BME280;5718;42.138;24.762;2023-09-12T13:11:30;99579.00;;;30.52;36.29
11327;BME280;5718;42.138;24.762;2023-09-12T13:13:57;99584.56;;;30.82;36.71
11327;BME280;5718;42.138;24.762;2023-09-12T13:16:24;99582.66;;;30.73;36.96
11327;BME280;5718;42.138;24.762;2023-09-12T13:18:52;99581.34;;;30.34;36.81
11327;BME280;5718;42.138;24.762;2023-09-12T13:21:19;99585.25;;;30.30;37.03
11327;BME280;5718;42.138;24.762;2023-09-12T13:23:45;99576.34;;;29.96;37.25
11327;BME280;5718;42.138;24.762;2023-09-12T13:26:12;99578.75;;;30.43;36.45
11327;BME280;5718;42.138;24.762;2023-09-12T13:28:39;99567.47;;;30.29;36.45
11327;BME280;5718;42.138;24.762;2023-09-12T13:31:07;99569.25;;;30.62;36.18
11327;BME280;5718;42.138;24.762;2023-09-12T13:33:33;99565.00;;;30.37;37.17
11327;BME280;5718;42.138;24.762;2023-09-12T13:36:02;99571.38;;;30.25;36.11
11327;BME280;5718;42.138;24.762;2023-09-12T13:38:29;99574.75;;;30.49;35.85
11327;BME280;5718;42.138;24.762;2023-09-12T13:40:55;99569.50;;;30.36;35.68
11327;BME280;5718;42.138;24.762;2023-09-12T13:43:22;99574.03;;;30.25;35.64
11327;BME280;5718;42.138;24.762;2023-09-12T13:45:49;99572.84;;;30.29;34.12
11327;BME280;5718;42.138;24.762;2023-09-12T13:48:16;99570.09;;;30.62;34.96
11327;BME280;5718;42.138;24.762;2023-09-12T13:50:43;99559.03;;;30.33;35.63
11327;BME280;5718;42.138;24.762;2023-09-12T13:53:11;99558.97;;;30.78;35.49
11327;BME280;5718;42.138;24.762;2023-09-12T13:55:38;99558.88;;;30.57;34.33
11327;BME280;5718;42.138;24.762;2023-09-12T13:58:05;99568.56;;;30.92;34.65
11327;BME280;5718;42.138;24.762;2023-09-12T14:00:33;99562.22;;;30.93;34.81
11327;BME280;5718;42.138;24.762;2023-09-12T14:03:00;99568.75;;;30.68;35.37
11327;BME280;5718;42.138;24.762;2023-09-12T14:05:28;99563.25;;;30.81;35.19
11327;BME280;5718;42.138;24.762;2023-09-12T14:07:55;99560.56;;;30.81;34.70
11327;BME280;5718;42.138;24.762;2023-09-12T14:10:23;99558.53;;;30.94;35.24
11327;BME280;5718;42.138;24.762;2023-09-12T14:12:49;99561.78;;;30.76;34.91
11327;BME280;5718;42.138;24.762;2023-09-12T14:15:16;99566.78;;;30.81;35.68
11327;BME280;5718;42.138;24.762;2023-09-12T14:17:43;99554.38;;;30.58;35.40
11327;BME280;5718;42.138;24.762;2023-09-12T14:20:10;99561.66;;;30.12;35.38
11327;BME280;5718;42.138;24.762;2023-09-12T14:22:40;99551.84;;;30.00;35.50
11327;BME280;5718;42.138;24.762;2023-09-12T14:25:07;99551.78;;;30.13;35.69
11327;BME280;5718;42.138;24.762;2023-09-12T14:27:36;99553.69;;;30.33;35.47
11327;BME280;5718;42.138;24.762;2023-09-12T14:30:03;99556.75;;;30.29;35.55
11327;BME280;5718;42.138;24.762;2023-09-12T14:32:30;99558.56;;;30.17;36.08
11327;BME280;5718;42.138;24.762;2023-09-12T14:34:56;99553.03;;;30.52;35.18
11327;BME280;5718;42.138;24.762;2023-09-12T14:37:24;99556.59;;;30.41;34.86
11327;BME280;5718;42.138;24.762;2023-09-12T14:39:53;99558.16;;;30.55;35.52
11327;BME280;5718;42.138;24.762;2023-09-12T14:42:20;99551.25;;;30.30;35.52
11327;BME280;5718;42.138;24.762;2023-09-12T14:44:48;99552.22;;;30.07;35.75
11327;BME280;5718;42.138;24.762;2023-09-12T14:47:15;99555.66;;;30.09;36.09
11327;BME280;5718;42.138;24.762;2023-09-12T14:49:42;99549.81;;;30.15;36.03
11327;BME280;5718;42.138;24.762;2023-09-12T14:52:08;99544.31;;;30.28;35.26
11327;BME280;5718;42.138;24.762;2023-09-12T14:54:35;99542.13;;;30.33;35.72
11327;BME280;5718;42.138;24.762;2023-09-12T14:57:02;99541.72;;;30.48;35.95
11327;BME280;5718;42.138;24.762;2023-09-12T14:59:28;99539.56;;;30.20;36.07
11327;BME280;5718;42.138;24.762;2023-09-12T15:01:57;99540.53;;;30.19;35.70
11327;BME280;5718;42.138;24.762;2023-09-12T15:04:23;99542.38;;;30.18;36.04
11327;BME280;5718;42.138;24.762;2023-09-12T15:06:50;99541.38;;;30.19;36.09
11327;BME280;5718;42.138;24.762;2023-09-12T15:09:17;99539.44;;;29.88;36.44
11327;BME280;5718;42.138;24.762;2023-09-12T15:11:44;99539.16;;;29.69;36.10
11327;BME280;5718;42.138;24.762;2023-09-12T15:14:12;99544.31;;;29.72;36.12
11327;BME280;5718;42.138;24.762;2023-09-12T15:16:38;99542.69;;;29.69;36.47
11327;BME280;5718;42.138;24.762;2023-09-12T15:19:06;99544.78;;;29.65;36.07
11327;BME280;5718;42.138;24.762;2023-09-12T15:21:34;99543.06;;;29.64;36.97
11327;BME280;5718;42.138;24.762;2023-09-12T15:24:00;99539.28;;;29.56;37.18
11327;BME280;5718;42.138;24.762;2023-09-12T15:26:27;99535.97;;;29.52;37.07
11327;BME280;5718;42.138;24.762;2023-09-12T15:28:54;99535.97;;;29.52;37.03
11327;BME280;5718;42.138;24.762;2023-09-12T15:31:21;99536.50;;;29.57;37.12
11327;BME280;5718;42.138;24.762;2023-09-12T15:33:47;99544.44;;;29.35;37.74
11327;BME280;5718;42.138;24.762;2023-09-12T15:36:15;99532.63;;;29.37;37.13
11327;BME280;5718;42.138;24.762;2023-09-12T15:38:42;99539.47;;;29.42;37.65
11327;BME280;5718;42.138;24.762;2023-09-12T15:41:09;99535.56;;;29.46;37.38
11327;BME280;5718;42.138;24.762;2023-09-12T15:43:37;99531.16;;;29.22;37.24
11327;BME280;5718;42.138;24.762;2023-09-12T15:46:03;99530.78;;;29.27;37.64
11327;BME280;5718;42.138;24.762;2023-09-12T15:48:30;99528.31;;;29.13;38.09
11327;BME280;5718;42.138;24.762;2023-09-12T15:50:57;99522.13;;;28.88;38.28
11327;BME280;5718;42.138;24.762;2023-09-12T15:53:25;99527.50;;;28.88;39.17
11327;BME280;5718;42.138;24.762;2023-09-12T15:55:51;99524.19;;;28.85;39.18
11327;BME280;5718;42.138;24.762;2023-09-12T15:58:18;99519.97;;;28.69;38.98
11327;BME280;5718;42.138;24.762;2023-09-12T16:00:45;99515.84;;;28.65;39.32
11327;BME280;5718;42.138;24.762;2023-09-12T16:03:12;99525.22;;;28.47;39.99